sensor_id;sensor_type;location;lat;lon;timestamp;P1;durP1;ratioP1;P2;durP2;ratioP2
42754;SDS011;28407;51.830;5.684;2023-05-10T00:00:34;9.40;;;7.65;;
42754;SDS011;28407;51.830;5.684;2023-05-10T00:02:34;9.52;;;7.93;;
42754;SDS011;28407;51.830;5.684;2023-05-10T00:04:35;8.82;;;7.35;;
42754;SDS011;28407;51.830;5.684;2023-05-10T00:06:36;9.57;;;7.32;;
42754;SDS011;28407;51.830;5.684;2023-05-10T00:08:37;8.88;;;6.68;;
42754;SDS011;28407;51.830;5.684;2023-05-10T00:10:37;8.50;;;7.15;;
42754;SDS011;28407;51.830;5.684;2023-05-10T00:12:38;9.10;;;7.25;;
42754;SDS011;28407;51.830;5.684;2023-05-10T00:14:39;10.60;;;7.40;;
42754;SDS011;28407;51.830;5.684;2023-05-10T00:16:39;11.00;;;8.10;;
42754;SDS011;28407;51.830;5.684;2023-05-10T00:18:40;8.80;;;7.35;;
42754;SDS011;28407;51.830;5.684;2023-05-10T00:20:41;10.63;;;7.03;;
42754;SDS011;28407;51.830;5.684;2023-05-10T00:22:42;7.70;;;6.10;;
42754;SDS011;28407;51.830;5.684;2023-05-10T00:24:42;9.32;;;7.13;;
42754;SDS011;28407;51.830;5.684;2023-05-10T00:26:43;9.13;;;7.53;;
42754;SDS011;28407;51.830;5.684;2023-05-10T00:28:43;10.93;;;6.25;;
42754;SDS011;28407;51.830;5.684;2023-05-10T00:30:44;8.32;;;6.95;;
42754;SDS011;28407;51.830;5.684;2023-05-10T00:32:45;7.95;;;6.45;;
42754;SDS011;28407;51.830;5.684;2023-05-10T00:34:45;7.78;;;6.45;;
42754;SDS011;28407;51.830;5.684;2023-05-10T00:36:46;8.85;;;7.10;;
42754;SDS011;28407;51.830;5.684;2023-05-10T00:38:46;8.57;;;6.38;;
42754;SDS011;28407;51.830;5.684;2023-05-10T00:40:47;10.40;;;7.07;;
42754;SDS011;28407;51.830;5.684;2023-05-10T00:42:56;10.77;;;7.60;;
42754;SDS011;28407;51.830;5.684;2023-05-10T00:44:57;8.95;;;6.70;;
42754;SDS011;28407;51.830;5.684;2023-05-10T00:46:58;8.65;;;6.32;;
42754;SDS011;28407;51.830;5.684;2023-05-10T00:48:59;8.50;;;7.07;;
42754;SDS011;28407;51.830;5.684;2023-05-10T00:51:00;9.50;;;8.05;;
42754;SDS011;28407;51.830;5.684;2023-05-10T00:53:01;8.98;;;7.18;;
42754;SDS011;28407;51.830;5.684;2023-05-10T00:55:03;9.02;;;6.90;;
42754;SDS011;28407;51.830;5.684;2023-05-10T00:57:06;8.80;;;6.45;;
42754;SDS011;28407;51.830;5.684;2023-05-10T00:59:09;10.52;;;6.95;;
42754;SDS011;28407;51.830;5.684;2023-05-10T01:01:10;8.32;;;6.85;;
42754;SDS011;28407;51.830;5.684;2023-05-10T01:03:11;8.63;;;6.87;;
42754;SDS011;28407;51.830;5.684;2023-05-10T01:05:12;11.30;;;7.85;;
42754;SDS011;28407;51.830;5.684;2023-05-10T01:07:13;10.20;;;8.82;;
42754;SDS011;28407;51.830;5.684;2023-05-10T01:09:14;11.23;;;8.65;;
42754;SDS011;28407;51.830;5.684;2023-05-10T01:11:15;10.30;;;7.57;;
42754;SDS011;28407;51.830;5.684;2023-05-10T01:13:18;9.77;;;7.68;;
42754;SDS011;28407;51.830;5.684;2023-05-10T01:15:30;11.85;;;8.60;;
42754;SDS011;28407;51.830;5.684;2023-05-10T01:17:31;12.48;;;9.13;;
42754;SDS011;28407;51.830;5.684;2023-05-10T01:19:34;11.73;;;8.45;;
42754;SDS011;28407;51.830;5.684;2023-05-10T01:21:43;11.57;;;8.70;;
42754;SDS011;28407;51.830;5.684;2023-05-10T01:24:00;12.45;;;8.52;;
42754;SDS011;28407;51.830;5.684;2023-05-10T01:32:27;12.23;;;9.15;;
42754;SDS011;28407;51.830;5.684;2023-05-10T01:34:23;12.32;;;9.30;;
42754;SDS011;28407;51.830;5.684;2023-05-10T01:36:30;12.90;;;9.38;;
42754;SDS011;28407;51.830;5.684;2023-05-10T01:38:45;12.65;;;9.93;;
42754;SDS011;28407;51.830;5.684;2023-05-10T01:42:59;13.93;;;10.63;;
42754;SDS011;28407;51.830;5.684;2023-05-10T01:45:07;15.90;;;11.63;;
42754;SDS011;28407;51.830;5.684;2023-05-10T01:47:14;13.63;;;10.18;;
42754;SDS011;28407;51.830;5.684;2023-05-10T01:49:23;14.95;;;10.43;;
42754;SDS011;28407;51.830;5.684;2023-05-10T01:51:27;14.10;;;10.32;;
42754;SDS011;28407;51.830;5.684;2023-05-10T01:53:35;13.32;;;11.40;;
42754;SDS011;28407;51.830;5.684;2023-05-10T01:55:40;15.93;;;10.10;;
42754;SDS011;28407;51.830;5.684;2023-05-10T01:57:46;13.55;;;10.23;;
42754;SDS011;28407;51.830;5.684;2023-05-10T01:59:50;15.90;;;10.38;;
42754;SDS011;28407;51.830;5.684;2023-05-10T02:01:52;14.88;;;9.82;;
42754;SDS011;28407;51.830;5.684;2023-05-10T02:03:54;16.40;;;11.18;;
42754;SDS011;28407;51.830;5.684;2023-05-10T02:05:57;14.27;;;10.85;;
42754;SDS011;28407;51.830;5.684;2023-05-10T02:07:58;16.20;;;12.85;;
42754;SDS011;28407;51.830;5.684;2023-05-10T02:10:02;17.08;;;11.52;;
42754;SDS011;28407;51.830;5.684;2023-05-10T02:12:05;15.82;;;11.30;;
42754;SDS011;28407;51.830;5.684;2023-05-10T02:14:07;15.40;;;11.93;;
42754;SDS011;28407;51.830;5.684;2023-05-10T02:16:10;15.90;;;11.43;;
42754;SDS011;28407;51.830;5.684;2023-05-10T02:18:12;17.73;;;12.45;;
42754;SDS011;28407;51.830;5.684;2023-05-10T02:20:15;16.70;;;12.00;;
42754;SDS011;28407;51.830;5.684;2023-05-10T02:22:18;17.67;;;12.60;;
42754;SDS011;28407;51.830;5.684;2023-05-10T02:26:22;16.17;;;11.95;;
42754;SDS011;28407;51.830;5.684;2023-05-10T02:28:25;15.70;;;11.50;;
42754;SDS011;28407;51.830;5.684;2023-05-10T02:30:26;13.23;;;10.07;;
42754;SDS011;28407;51.830;5.684;2023-05-10T02:32:28;17.27;;;12.98;;
42754;SDS011;28407;51.830;5.684;2023-05-10T02:34:30;16.60;;;11.18;;
42754;SDS011;28407;51.830;5.684;2023-05-10T02:36:32;16.38;;;11.98;;
42754;SDS011;28407;51.830;5.684;2023-05-10T02:38:33;16.05;;;11.70;;
42754;SDS011;28407;51.830;5.684;2023-05-10T02:40:36;16.98;;;12.88;;
42754;SDS011;28407;51.830;5.684;2023-05-10T02:42:37;15.85;;;11.82;;
42754;SDS011;28407;51.830;5.684;2023-05-10T02:44:42;16.35;;;12.30;;
42754;SDS011;28407;51.830;5.684;2023-05-10T02:46:45;17.00;;;12.25;;
42754;SDS011;28407;51.830;5.684;2023-05-10T02:48:46;17.52;;;11.98;;
42754;SDS011;28407;51.830;5.684;2023-05-10T02:50:47;15.98;;;11.88;;
42754;SDS011;28407;51.830;5.684;2023-05-10T02:52:51;15.48;;;11.57;;
42754;SDS011;28407;51.830;5.684;2023-05-10T02:54:58;16.38;;;11.90;;
42754;SDS011;28407;51.830;5.684;2023-05-10T02:57:03;16.73;;;12.23;;
42754;SDS011;28407;51.830;5.684;2023-05-10T02:59:05;17.13;;;12.30;;
42754;SDS011;28407;51.830;5.684;2023-05-10T03:01:06;15.50;;;11.50;;
42754;SDS011;28407;51.830;5.684;2023-05-10T03:03:07;18.55;;;12.20;;
42754;SDS011;28407;51.830;5.684;2023-05-10T03:05:08;18.65;;;13.15;;
42754;SDS011;28407;51.830;5.684;2023-05-10T03:07:09;17.67;;;12.25;;
42754;SDS011;28407;51.830;5.684;2023-05-10T03:09:10;17.88;;;11.90;;
42754;SDS011;28407;51.830;5.684;2023-05-10T03:11:23;16.65;;;12.30;;
42754;SDS011;28407;51.830;5.684;2023-05-10T03:16:27;16.13;;;11.43;;
42754;SDS011;28407;51.830;5.684;2023-05-10T03:18:34;17.17;;;10.90;;
42754;SDS011;28407;51.830;5.684;2023-05-10T03:20:42;20.05;;;12.90;;
42754;SDS011;28407;51.830;5.684;2023-05-10T03:22:47;16.65;;;11.05;;
42754;SDS011;28407;51.830;5.684;2023-05-10T03:24:55;17.70;;;12.02;;
42754;SDS011;28407;51.830;5.684;2023-05-10T03:26:59;19.95;;;11.82;;
42754;SDS011;28407;51.830;5.684;2023-05-10T03:29:03;19.88;;;12.65;;
42754;SDS011;28407;51.830;5.684;2023-05-10T03:31:06;24.40;;;15.05;;
42754;SDS011;28407;51.830;5.684;2023-05-10T03:35:13;15.38;;;10.32;;
42754;SDS011;28407;51.830;5.684;2023-05-10T03:37:14;17.63;;;11.18;;
42754;SDS011;28407;51.830;5.684;2023-05-10T03:39:15;17.63;;;11.90;;
42754;SDS011;28407;51.830;5.684;2023-05-10T03:41:17;18.70;;;13.63;;
42754;SDS011;28407;51.830;5.684;2023-05-10T03:43:17;16.58;;;12.05;;
42754;SDS011;28407;51.830;5.684;2023-05-10T03:45:18;16.02;;;11.27;;
42754;SDS011;28407;51.830;5.684;2023-05-10T03:47:18;17.45;;;10.95;;
42754;SDS011;28407;51.830;5.684;2023-05-10T03:49:20;17.43;;;11.63;;
42754;SDS011;28407;51.830;5.684;2023-05-10T03:51:21;15.67;;;11.17;;
42754;SDS011;28407;51.830;5.684;2023-05-10T03:53:22;17.80;;;11.57;;
42754;SDS011;28407;51.830;5.684;2023-05-10T03:55:23;16.33;;;10.68;;
42754;SDS011;28407;51.830;5.684;2023-05-10T03:57:24;15.43;;;10.97;;
42754;SDS011;28407;51.830;5.684;2023-05-10T03:59:25;15.63;;;10.43;;
42754;SDS011;28407;51.830;5.684;2023-05-10T04:01:26;16.33;;;10.65;;
42754;SDS011;28407;51.830;5.684;2023-05-10T04:03:26;17.48;;;11.77;;
42754;SDS011;28407;51.830;5.684;2023-05-10T04:05:27;18.65;;;11.65;;
42754;SDS011;28407;51.830;5.684;2023-05-10T04:07:28;18.20;;;10.65;;
42754;SDS011;28407;51.830;5.684;2023-05-10T04:09:29;15.32;;;10.23;;
42754;SDS011;28407;51.830;5.684;2023-05-10T04:11:30;17.55;;;10.75;;
42754;SDS011;28407;51.830;5.684;2023-05-10T04:13:30;15.70;;;12.10;;
42754;SDS011;28407;51.830;5.684;2023-05-10T04:15:31;15.57;;;10.05;;
42754;SDS011;28407;51.830;5.684;2023-05-10T04:17:32;16.85;;;9.82;;
42754;SDS011;28407;51.830;5.684;2023-05-10T04:19:32;16.27;;;10.45;;
42754;SDS011;28407;51.830;5.684;2023-05-10T04:21:33;19.95;;;12.27;;
42754;SDS011;28407;51.830;5.684;2023-05-10T04:23:33;16.83;;;11.48;;
42754;SDS011;28407;51.830;5.684;2023-05-10T04:25:34;16.33;;;11.35;;
42754;SDS011;28407;51.830;5.684;2023-05-10T04:27:35;16.30;;;10.93;;
42754;SDS011;28407;51.830;5.684;2023-05-10T04:29:36;16.17;;;10.85;;
42754;SDS011;28407;51.830;5.684;2023-05-10T04:31:36;16.13;;;12.00;;
42754;SDS011;28407;51.830;5.684;2023-05-10T04:33:38;15.45;;;11.65;;
42754;SDS011;28407;51.830;5.684;2023-05-10T04:35:39;18.53;;;11.67;;
42754;SDS011;28407;51.830;5.684;2023-05-10T04:37:40;17.23;;;11.98;;
42754;SDS011;28407;51.830;5.684;2023-05-10T04:39:40;15.50;;;11.68;;
42754;SDS011;28407;51.830;5.684;2023-05-10T04:41:41;16.00;;;11.63;;
42754;SDS011;28407;51.830;5.684;2023-05-10T04:43:41;14.95;;;11.82;;
42754;SDS011;28407;51.830;5.684;2023-05-10T04:45:42;16.42;;;11.40;;
42754;SDS011;28407;51.830;5.684;2023-05-10T04:47:42;19.20;;;12.25;;
42754;SDS011;28407;51.830;5.684;2023-05-10T04:49:43;15.52;;;12.07;;
42754;SDS011;28407;51.830;5.684;2023-05-10T04:51:44;16.17;;;12.23;;
42754;SDS011;28407;51.830;5.684;2023-05-10T04:53:44;17.63;;;12.65;;
42754;SDS011;28407;51.830;5.684;2023-05-10T04:55:45;19.70;;;11.85;;
42754;SDS011;28407;51.830;5.684;2023-05-10T04:57:46;16.73;;;11.88;;
42754;SDS011;28407;51.830;5.684;2023-05-10T04:59:47;18.42;;;13.43;;
42754;SDS011;28407;51.830;5.684;2023-05-10T05:01:48;18.10;;;12.18;;
42754;SDS011;28407;51.830;5.684;2023-05-10T05:03:48;17.38;;;11.85;;
42754;SDS011;28407;51.830;5.684;2023-05-10T05:05:49;15.13;;;11.02;;
42754;SDS011;28407;51.830;5.684;2023-05-10T05:07:50;16.35;;;12.30;;
42754;SDS011;28407;51.830;5.684;2023-05-10T05:09:50;15.23;;;11.38;;
42754;SDS011;28407;51.830;5.684;2023-05-10T05:11:51;14.38;;;10.43;;
42754;SDS011;28407;51.830;5.684;2023-05-10T05:13:52;17.13;;;13.75;;
42754;SDS011;28407;51.830;5.684;2023-05-10T05:15:53;16.92;;;12.13;;
42754;SDS011;28407;51.830;5.684;2023-05-10T05:17:54;15.52;;;11.90;;
42754;SDS011;28407;51.830;5.684;2023-05-10T05:19:55;17.23;;;12.93;;
42754;SDS011;28407;51.830;5.684;2023-05-10T05:21:55;16.98;;;12.68;;
42754;SDS011;28407;51.830;5.684;2023-05-10T05:23:56;15.77;;;12.40;;
42754;SDS011;28407;51.830;5.684;2023-05-10T05:25:57;16.63;;;11.80;;
42754;SDS011;28407;51.830;5.684;2023-05-10T05:27:57;18.83;;;12.80;;
42754;SDS011;28407;51.830;5.684;2023-05-10T05:29:58;15.07;;;12.35;;
42754;SDS011;28407;51.830;5.684;2023-05-10T05:31:59;16.80;;;12.27;;
42754;SDS011;28407;51.830;5.684;2023-05-10T05:34:00;17.27;;;12.60;;
42754;SDS011;28407;51.830;5.684;2023-05-10T05:36:01;17.40;;;12.68;;
42754;SDS011;28407;51.830;5.684;2023-05-10T05:38:02;17.88;;;13.23;;
42754;SDS011;28407;51.830;5.684;2023-05-10T05:40:03;17.90;;;12.60;;
42754;SDS011;28407;51.830;5.684;2023-05-10T05:42:04;21.73;;;14.00;;
42754;SDS011;28407;51.830;5.684;2023-05-10T05:44:05;18.00;;;13.25;;
42754;SDS011;28407;51.830;5.684;2023-05-10T05:46:05;19.42;;;14.52;;
42754;SDS011;28407;51.830;5.684;2023-05-10T05:48:06;15.88;;;11.95;;
42754;SDS011;28407;51.830;5.684;2023-05-10T05:50:07;18.67;;;12.90;;
42754;SDS011;28407;51.830;5.684;2023-05-10T05:52:07;17.95;;;13.43;;
42754;SDS011;28407;51.830;5.684;2023-05-10T05:54:08;19.73;;;12.63;;
42754;SDS011;28407;51.830;5.684;2023-05-10T05:56:09;18.95;;;12.32;;
42754;SDS011;28407;51.830;5.684;2023-05-10T05:58:09;16.77;;;11.05;;
42754;SDS011;28407;51.830;5.684;2023-05-10T06:00:10;17.00;;;11.48;;
42754;SDS011;28407;51.830;5.684;2023-05-10T06:02:14;15.52;;;10.48;;
42754;SDS011;28407;51.830;5.684;2023-05-10T06:04:14;19.08;;;11.57;;
42754;SDS011;28407;51.830;5.684;2023-05-10T06:06:15;17.20;;;11.25;;
42754;SDS011;28407;51.830;5.684;2023-05-10T06:08:15;15.93;;;11.73;;
42754;SDS011;28407;51.830;5.684;2023-05-10T06:10:16;17.65;;;11.35;;
42754;SDS011;28407;51.830;5.684;2023-05-10T06:12:17;17.75;;;11.25;;
42754;SDS011;28407;51.830;5.684;2023-05-10T06:14:17;20.73;;;12.35;;
42754;SDS011;28407;51.830;5.684;2023-05-10T06:16:20;15.82;;;11.43;;
42754;SDS011;28407;51.830;5.684;2023-05-10T06:18:21;19.92;;;12.27;;
42754;SDS011;28407;51.830;5.684;2023-05-10T06:20:21;18.00;;;12.38;;
42754;SDS011;28407;51.830;5.684;2023-05-10T06:22:22;17.85;;;12.57;;
42754;SDS011;28407;51.830;5.684;2023-05-10T06:24:22;21.77;;;12.27;;
42754;SDS011;28407;51.830;5.684;2023-05-10T06:26:23;18.90;;;12.90;;
42754;SDS011;28407;51.830;5.684;2023-05-10T06:28:24;19.60;;;12.82;;
42754;SDS011;28407;51.830;5.684;2023-05-10T06:30:25;17.42;;;12.25;;
42754;SDS011;28407;51.830;5.684;2023-05-10T06:32:28;18.98;;;12.60;;
42754;SDS011;28407;51.830;5.684;2023-05-10T06:34:28;18.00;;;12.00;;
42754;SDS011;28407;51.830;5.684;2023-05-10T06:36:29;15.48;;;12.10;;
42754;SDS011;28407;51.830;5.684;2023-05-10T06:38:30;18.20;;;11.15;;
42754;SDS011;28407;51.830;5.684;2023-05-10T06:40:31;19.50;;;13.70;;
42754;SDS011;28407;51.830;5.684;2023-05-10T06:42:32;16.60;;;11.27;;
42754;SDS011;28407;51.830;5.684;2023-05-10T06:44:33;21.17;;;14.05;;
42754;SDS011;28407;51.830;5.684;2023-05-10T06:46:34;14.15;;;10.85;;
42754;SDS011;28407;51.830;5.684;2023-05-10T06:48:35;16.85;;;11.68;;
42754;SDS011;28407;51.830;5.684;2023-05-10T06:50:35;17.42;;;11.20;;
42754;SDS011;28407;51.830;5.684;2023-05-10T06:52:36;16.65;;;11.55;;
42754;SDS011;28407;51.830;5.684;2023-05-10T06:54:37;16.15;;;11.43;;
42754;SDS011;28407;51.830;5.684;2023-05-10T06:56:38;17.58;;;11.85;;
42754;SDS011;28407;51.830;5.684;2023-05-10T06:58:39;20.42;;;11.82;;
42754;SDS011;28407;51.830;5.684;2023-05-10T07:00:39;15.55;;;12.63;;
42754;SDS011;28407;51.830;5.684;2023-05-10T07:02:42;17.15;;;11.20;;
42754;SDS011;28407;51.830;5.684;2023-05-10T07:04:43;17.42;;;11.43;;
42754;SDS011;28407;51.830;5.684;2023-05-10T07:06:44;15.05;;;11.38;;
42754;SDS011;28407;51.830;5.684;2023-05-10T07:08:46;15.35;;;10.38;;
42754;SDS011;28407;51.830;5.684;2023-05-10T07:10:46;16.35;;;12.50;;
42754;SDS011;28407;51.830;5.684;2023-05-10T07:12:47;15.57;;;11.13;;
42754;SDS011;28407;51.830;5.684;2023-05-10T07:14:47;14.65;;;11.00;;
42754;SDS011;28407;51.830;5.684;2023-05-10T07:16:48;14.82;;;11.02;;
42754;SDS011;28407;51.830;5.684;2023-05-10T07:18:49;14.30;;;10.80;;
42754;SDS011;28407;51.830;5.684;2023-05-10T07:20:50;14.30;;;11.03;;
42754;SDS011;28407;51.830;5.684;2023-05-10T07:22:51;14.27;;;10.93;;
42754;SDS011;28407;51.830;5.684;2023-05-10T07:24:52;13.90;;;10.10;;
42754;SDS011;28407;51.830;5.684;2023-05-10T07:26:52;14.50;;;9.50;;
42754;SDS011;28407;51.830;5.684;2023-05-10T07:28:53;16.42;;;11.05;;
42754;SDS011;28407;51.830;5.684;2023-05-10T07:30:53;14.65;;;10.73;;
42754;SDS011;28407;51.830;5.684;2023-05-10T07:32:54;16.30;;;11.63;;
42754;SDS011;28407;51.830;5.684;2023-05-10T07:34:55;14.43;;;11.05;;
42754;SDS011;28407;51.830;5.684;2023-05-10T07:36:57;15.23;;;11.07;;
42754;SDS011;28407;51.830;5.684;2023-05-10T07:38:58;15.65;;;11.10;;
42754;SDS011;28407;51.830;5.684;2023-05-10T07:40:59;14.55;;;11.45;;
42754;SDS011;28407;51.830;5.684;2023-05-10T07:42:59;17.70;;;11.23;;
42754;SDS011;28407;51.830;5.684;2023-05-10T07:45:01;15.57;;;11.52;;
42754;SDS011;28407;51.830;5.684;2023-05-10T07:47:02;16.98;;;11.60;;
42754;SDS011;28407;51.830;5.684;2023-05-10T07:49:02;17.90;;;12.38;;
42754;SDS011;28407;51.830;5.684;2023-05-10T07:51:03;20.63;;;12.27;;
42754;SDS011;28407;51.830;5.684;2023-05-10T07:53:04;16.77;;;12.27;;
42754;SDS011;28407;51.830;5.684;2023-05-10T07:55:05;18.50;;;13.00;;
42754;SDS011;28407;51.830;5.684;2023-05-10T07:57:07;16.13;;;12.07;;
42754;SDS011;28407;51.830;5.684;2023-05-10T07:59:07;17.70;;;13.35;;
42754;SDS011;28407;51.830;5.684;2023-05-10T08:01:08;18.00;;;11.70;;
42754;SDS011;28407;51.830;5.684;2023-05-10T08:03:08;17.05;;;12.88;;
42754;SDS011;28407;51.830;5.684;2023-05-10T08:05:09;19.17;;;12.27;;
42754;SDS011;28407;51.830;5.684;2023-05-10T08:07:10;15.88;;;12.63;;
42754;SDS011;28407;51.830;5.684;2023-05-10T08:09:11;18.42;;;13.32;;
42754;SDS011;28407;51.830;5.684;2023-05-10T08:11:11;17.02;;;12.10;;
42754;SDS011;28407;51.830;5.684;2023-05-10T08:13:12;18.35;;;12.57;;
42754;SDS011;28407;51.830;5.684;2023-05-10T08:15:13;15.60;;;12.45;;
42754;SDS011;28407;51.830;5.684;2023-05-10T08:17:13;15.20;;;11.50;;
42754;SDS011;28407;51.830;5.684;2023-05-10T08:19:14;17.30;;;12.57;;
42754;SDS011;28407;51.830;5.684;2023-05-10T08:21:18;15.82;;;11.57;;
42754;SDS011;28407;51.830;5.684;2023-05-10T08:23:19;16.02;;;12.98;;
42754;SDS011;28407;51.830;5.684;2023-05-10T08:25:19;16.42;;;11.80;;
42754;SDS011;28407;51.830;5.684;2023-05-10T08:27:20;18.52;;;14.13;;
42754;SDS011;28407;51.830;5.684;2023-05-10T08:29:21;18.27;;;12.23;;
42754;SDS011;28407;51.830;5.684;2023-05-10T08:31:21;18.70;;;13.02;;
42754;SDS011;28407;51.830;5.684;2023-05-10T08:33:22;18.50;;;13.23;;
42754;SDS011;28407;51.830;5.684;2023-05-10T08:35:22;16.13;;;12.27;;
42754;SDS011;28407;51.830;5.684;2023-05-10T08:37:24;19.50;;;13.35;;
42754;SDS011;28407;51.830;5.684;2023-05-10T08:39:25;18.27;;;11.98;;
42754;SDS011;28407;51.830;5.684;2023-05-10T08:41:25;15.18;;;10.75;;
42754;SDS011;28407;51.830;5.684;2023-05-10T08:43:27;15.88;;;10.43;;
42754;SDS011;28407;51.830;5.684;2023-05-10T08:45:29;14.73;;;11.68;;
42754;SDS011;28407;51.830;5.684;2023-05-10T08:47:35;14.80;;;9.40;;
42754;SDS011;28407;51.830;5.684;2023-05-10T08:49:37;16.08;;;11.32;;
42754;SDS011;28407;51.830;5.684;2023-05-10T08:51:40;14.68;;;10.00;;
42754;SDS011;28407;51.830;5.684;2023-05-10T08:53:46;17.38;;;9.85;;
42754;SDS011;28407;51.830;5.684;2023-05-10T08:55:47;13.73;;;10.23;;
42754;SDS011;28407;51.830;5.684;2023-05-10T08:57:48;12.50;;;8.65;;
42754;SDS011;28407;51.830;5.684;2023-05-10T08:59:49;12.73;;;8.80;;
42754;SDS011;28407;51.830;5.684;2023-05-10T09:01:50;13.93;;;9.77;;
42754;SDS011;28407;51.830;5.684;2023-05-10T09:03:53;12.90;;;8.93;;
42754;SDS011;28407;51.830;5.684;2023-05-10T09:05:54;12.70;;;8.90;;
42754;SDS011;28407;51.830;5.684;2023-05-10T09:07:55;14.00;;;9.18;;
42754;SDS011;28407;51.830;5.684;2023-05-10T09:09:56;12.23;;;8.52;;
42754;SDS011;28407;51.830;5.684;2023-05-10T09:11:57;12.20;;;9.68;;
42754;SDS011;28407;51.830;5.684;2023-05-10T09:13:58;10.93;;;7.57;;
42754;SDS011;28407;51.830;5.684;2023-05-10T09:15:59;11.90;;;8.18;;
42754;SDS011;28407;51.830;5.684;2023-05-10T09:18:00;10.35;;;7.93;;
42754;SDS011;28407;51.830;5.684;2023-05-10T09:20:02;10.25;;;8.18;;
42754;SDS011;28407;51.830;5.684;2023-05-10T09:22:04;9.65;;;7.95;;
42754;SDS011;28407;51.830;5.684;2023-05-10T09:24:05;12.18;;;7.40;;
42754;SDS011;28407;51.830;5.684;2023-05-10T09:26:07;9.80;;;6.78;;
42754;SDS011;28407;51.830;5.684;2023-05-10T09:28:08;10.10;;;7.05;;
42754;SDS011;28407;51.830;5.684;2023-05-10T09:30:09;10.20;;;6.32;;
42754;SDS011;28407;51.830;5.684;2023-05-10T09:32:10;10.48;;;5.75;;
42754;SDS011;28407;51.830;5.684;2023-05-10T09:34:11;7.88;;;5.25;;
42754;SDS011;28407;51.830;5.684;2023-05-10T09:36:11;7.10;;;4.80;;
42754;SDS011;28407;51.830;5.684;2023-05-10T09:38:12;6.47;;;5.03;;
42754;SDS011;28407;51.830;5.684;2023-05-10T09:40:14;6.15;;;4.47;;
42754;SDS011;28407;51.830;5.684;2023-05-10T09:42:20;7.47;;;5.47;;
42754;SDS011;28407;51.830;5.684;2023-05-10T09:44:20;7.00;;;5.07;;
42754;SDS011;28407;51.830;5.684;2023-05-10T09:46:21;7.07;;;5.03;;
42754;SDS011;28407;51.830;5.684;2023-05-10T09:48:25;6.18;;;4.65;;
42754;SDS011;28407;51.830;5.684;2023-05-10T09:50:27;7.00;;;4.60;;
42754;SDS011;28407;51.830;5.684;2023-05-10T09:52:28;5.45;;;4.00;;
42754;SDS011;28407;51.830;5.684;2023-05-10T09:54:30;6.05;;;4.15;;
42754;SDS011;28407;51.830;5.684;2023-05-10T09:56:34;6.05;;;4.40;;
42754;SDS011;28407;51.830;5.684;2023-05-10T09:58:40;5.82;;;4.00;;
42754;SDS011;28407;51.830;5.684;2023-05-10T10:00:42;6.25;;;4.18;;
42754;SDS011;28407;51.830;5.684;2023-05-10T10:02:45;6.75;;;4.15;;
42754;SDS011;28407;51.830;5.684;2023-05-10T10:04:48;6.03;;;4.50;;
42754;SDS011;28407;51.830;5.684;2023-05-10T10:06:59;6.38;;;4.90;;
42754;SDS011;28407;51.830;5.684;2023-05-10T10:09:04;6.20;;;3.85;;
42754;SDS011;28407;51.830;5.684;2023-05-10T10:11:06;5.40;;;3.88;;
42754;SDS011;28407;51.830;5.684;2023-05-10T10:13:07;5.85;;;4.35;;
42754;SDS011;28407;51.830;5.684;2023-05-10T10:15:08;5.63;;;4.23;;
42754;SDS011;28407;51.830;5.684;2023-05-10T10:17:09;5.53;;;4.03;;
42754;SDS011;28407;51.830;5.684;2023-05-10T10:21:13;4.45;;;3.25;;
42754;SDS011;28407;51.830;5.684;2023-05-10T10:23:14;5.93;;;3.67;;
42754;SDS011;28407;51.830;5.684;2023-05-10T10:25:16;5.53;;;3.70;;
42754;SDS011;28407;51.830;5.684;2023-05-10T10:27:31;5.35;;;3.50;;
42754;SDS011;28407;51.830;5.684;2023-05-10T10:29:47;4.97;;;3.30;;
42754;SDS011;28407;51.830;5.684;2023-05-10T10:34:27;5.30;;;3.13;;
42754;SDS011;28407;51.830;5.684;2023-05-10T10:36:29;4.40;;;3.10;;
42754;SDS011;28407;51.830;5.684;2023-05-10T10:38:37;4.78;;;3.10;;
42754;SDS011;28407;51.830;5.684;2023-05-10T10:40:46;4.85;;;3.50;;
42754;SDS011;28407;51.830;5.684;2023-05-10T10:42:47;5.40;;;3.67;;
42754;SDS011;28407;51.830;5.684;2023-05-10T10:44:50;3.95;;;2.72;;
42754;SDS011;28407;51.830;5.684;2023-05-10T10:49:33;5.07;;;3.25;;
42754;SDS011;28407;51.830;5.684;2023-05-10T10:52:04;3.83;;;2.55;;
42754;SDS011;28407;51.830;5.684;2023-05-10T10:54:26;5.10;;;3.60;;
42754;SDS011;28407;51.830;5.684;2023-05-10T10:56:28;5.60;;;3.47;;
42754;SDS011;28407;51.830;5.684;2023-05-10T10:58:32;4.25;;;2.53;;
42754;SDS011;28407;51.830;5.684;2023-05-10T11:00:37;4.22;;;2.90;;
42754;SDS011;28407;51.830;5.684;2023-05-10T11:03:12;3.55;;;2.85;;
42754;SDS011;28407;51.830;5.684;2023-05-10T11:10:48;3.95;;;2.70;;
42754;SDS011;28407;51.830;5.684;2023-05-10T11:18:37;2.83;;;2.05;;
42754;SDS011;28407;51.830;5.684;2023-05-10T11:21:00;3.67;;;2.30;;
42754;SDS011;28407;51.830;5.684;2023-05-10T11:23:13;3.67;;;2.22;;
42754;SDS011;28407;51.830;5.684;2023-05-10T11:25:42;3.05;;;2.20;;
42754;SDS011;28407;51.830;5.684;2023-05-10T11:28:18;4.68;;;2.45;;
42754;SDS011;28407;51.830;5.684;2023-05-10T11:30:36;2.95;;;2.20;;
42754;SDS011;28407;51.830;5.684;2023-05-10T11:32:42;3.22;;;2.25;;
42754;SDS011;28407;51.830;5.684;2023-05-10T11:34:48;2.88;;;2.03;;
42754;SDS011;28407;51.830;5.684;2023-05-10T11:36:52;2.63;;;2.00;;
42754;SDS011;28407;51.830;5.684;2023-05-10T11:38:55;3.08;;;1.92;;
42754;SDS011;28407;51.830;5.684;2023-05-10T11:41:01;3.08;;;1.98;;
42754;SDS011;28407;51.830;5.684;2023-05-10T11:43:01;2.45;;;1.90;;
42754;SDS011;28407;51.830;5.684;2023-05-10T11:45:03;3.60;;;2.47;;
42754;SDS011;28407;51.830;5.684;2023-05-10T11:47:04;2.72;;;1.90;;
42754;SDS011;28407;51.830;5.684;2023-05-10T11:49:08;3.45;;;2.22;;
42754;SDS011;28407;51.830;5.684;2023-05-10T11:51:09;4.03;;;2.58;;
42754;SDS011;28407;51.830;5.684;2023-05-10T11:53:11;2.83;;;2.25;;
42754;SDS011;28407;51.830;5.684;2023-05-10T11:55:13;3.63;;;2.28;;
42754;SDS011;28407;51.830;5.684;2023-05-10T11:57:14;3.35;;;2.00;;
42754;SDS011;28407;51.830;5.684;2023-05-10T11:59:15;5.55;;;2.53;;
42754;SDS011;28407;51.830;5.684;2023-05-10T12:01:15;2.88;;;2.10;;
42754;SDS011;28407;51.830;5.684;2023-05-10T12:03:16;2.78;;;1.73;;
42754;SDS011;28407;51.830;5.684;2023-05-10T12:05:17;3.38;;;1.98;;
42754;SDS011;28407;51.830;5.684;2023-05-10T12:07:18;4.13;;;1.83;;
42754;SDS011;28407;51.830;5.684;2023-05-10T12:09:18;4.18;;;2.13;;
42754;SDS011;28407;51.830;5.684;2023-05-10T12:11:23;3.55;;;2.30;;
42754;SDS011;28407;51.830;5.684;2023-05-10T12:13:28;4.20;;;2.25;;
42754;SDS011;28407;51.830;5.684;2023-05-10T12:15:29;3.35;;;2.03;;
42754;SDS011;28407;51.830;5.684;2023-05-10T12:17:29;3.58;;;2.60;;
42754;SDS011;28407;51.830;5.684;2023-05-10T12:19:39;3.22;;;2.13;;
42754;SDS011;28407;51.830;5.684;2023-05-10T12:21:48;3.55;;;2.50;;
42754;SDS011;28407;51.830;5.684;2023-05-10T12:23:52;3.00;;;2.10;;
42754;SDS011;28407;51.830;5.684;2023-05-10T12:26:02;3.67;;;2.40;;
42754;SDS011;28407;51.830;5.684;2023-05-10T12:28:07;3.42;;;2.47;;
42754;SDS011;28407;51.830;5.684;2023-05-10T12:30:09;3.83;;;2.83;;
42754;SDS011;28407;51.830;5.684;2023-05-10T12:32:10;4.17;;;2.53;;
42754;SDS011;28407;51.830;5.684;2023-05-10T12:34:11;3.80;;;2.72;;
42754;SDS011;28407;51.830;5.684;2023-05-10T12:36:23;4.28;;;3.00;;
42754;SDS011;28407;51.830;5.684;2023-05-10T12:38:40;3.65;;;2.92;;